Time;durP1;ratioP1;P1;durP2;ratioP2;P2;SDS_P1;SDS_P2;PMS_P1;PMS_P2;Temp;Humidity;BMP_temperature;BMP_pressure;BME280_temperature;BME280_humidity;BME280_pressure;Samples;Min_cycle;Max_cycle;Signal;HPM_P1;HPM_P2
2021/03/29 00:01:39;;;;;;;8.27;7.70;;;7.10;20.50;;;;;;5019525;28;20412;-76
2021/03/29 00:04:05;;;;;;;8.20;7.70;;;7.10;20.50;;;;;;5020054;28;20878;-77
2021/03/29 00:06:31;;;;;;;8.30;7.80;;;7.10;21.30;;;;;;5038084;28;20179;-77
2021/03/29 00:08:58;;;;;;;9.00;8.38;;;7.00;20.80;;;;;;5037469;28;20172;-77
2021/03/29 00:11:25;;;;;;;8.02;7.40;;;7.00;20.90;;;;;;5037814;28;20231;-76
2021/03/29 00:13:53;;;;;;;14.75;7.82;;;6.90;20.70;;;;;;5037485;28;20617;-77
2021/03/29 00:16:20;;;;;;;8.50;8.00;;;6.90;21.40;;;;;;5036340;28;20189;-76
2021/03/29 00:18:46;;;;;;;8.20;7.63;;;6.90;21.10;;;;;;5035793;28;20239;-76
2021/03/29 00:21:12;;;;;;;8.30;7.57;;;6.90;21.20;;;;;;5037646;28;20419;-75
2021/03/29 00:23:38;;;;;;;7.07;6.72;;;6.90;21.30;;;;;;5036997;28;20664;-76
2021/03/29 00:26:14;;;;;;;7.07;6.57;;;7.00;21.60;;;;;;5019841;28;20250;-76
2021/03/29 00:28:40;;;;;;;7.53;7.03;;;7.00;21.30;;;;;;5037655;28;20261;-76
2021/03/29 00:31:11;;;;;;;8.60;7.30;;;7.00;21.40;;;;;;5018159;28;20216;-76
2021/03/29 00:33:39;;;;;;;7.05;6.55;;;7.00;21.40;;;;;;5034584;28;20208;-75
2021/03/29 00:36:06;;;;;;;6.82;6.40;;;6.90;20.80;;;;;;5017939;28;20298;-76
2021/03/29 00:38:33;;;;;;;8.00;7.40;;;7.00;26.10;;;;;;5034876;28;20177;-76
2021/03/29 00:41:05;;;;;;;6.22;5.85;;;6.80;32.30;;;;;;5034229;28;20187;-76
2021/03/29 00:43:37;;;;;;;7.22;6.72;;;7.00;42.30;;;;;;5017160;28;20199;-76
2021/03/29 00:46:08;;;;;;;7.10;6.57;;;6.90;21.30;;;;;;5034840;28;20216;-76
2021/03/29 00:48:35;;;;;;;6.68;6.18;;;6.90;21.30;;;;;;5017089;28;20180;-76
2021/03/29 00:51:39;;;;;;;7.13;6.63;;;6.90;21.30;;;;;;5033477;28;20174;-76
2021/03/29 00:54:09;;;;;;;7.32;6.75;;;6.80;21.30;;;;;;5014920;28;20290;-77
2021/03/29 00:56:37;;;;;;;6.60;6.20;;;6.80;21.30;;;;;;5033889;28;20235;-77
2021/03/29 00:59:05;;;;;;;6.57;6.17;;;6.80;21.30;;;;;;5033207;28;20403;-76
2021/03/29 01:01:41;;;;;;;5.70;5.32;;;6.80;21.70;;;;;;5033421;28;20415;-76
2021/03/29 01:04:08;;;;;;;5.53;5.22;;;6.80;21.80;;;;;;5033375;28;20198;-77
2021/03/29 01:06:47;;;;;;;5.03;4.72;;;6.70;22.20;;;;;;5015097;28;20734;-77
2021/03/29 01:09:25;;;;;;;5.82;5.53;;;6.60;22.90;;;;;;5032271;28;20171;-77
2021/03/29 01:12:03;;;;;;;5.85;5.35;;;6.60;22.50;;;;;;5033878;28;20234;-76
2021/03/29 01:14:32;;;;;;;8.15;5.50;;;6.50;22.70;;;;;;5033666;28;20712;-77
2021/03/29 01:17:05;;;;;;;5.80;5.40;;;6.50;22.80;;;;;;5015119;28;20640;-77
2021/03/29 01:19:45;;;;;;;5.72;5.25;;;6.40;22.80;;;;;;5032584;28;20170;-77
2021/03/29 01:22:16;;;;;;;7.00;6.40;;;6.40;22.40;;;;;;5015024;28;20195;-76
2021/03/29 01:25:06;;;;;;;5.57;5.13;;;6.40;22.40;;;;;;5014356;28;20199;-75
2021/03/29 01:27:34;;;;;;;6.57;5.97;;;6.40;22.40;;;;;;5013969;28;20246;-74
2021/03/29 01:30:01;;;;;;;5.40;5.00;;;6.30;22.20;;;;;;5013680;28;20197;-76
2021/03/29 01:32:29;;;;;;;6.15;5.75;;;6.40;22.10;;;;;;5031757;28;20229;-75
2021/03/29 01:34:56;;;;;;;5.45;5.05;;;6.40;22.20;;;;;;5013079;28;20210;-76
2021/03/29 01:37:23;;;;;;;4.97;4.60;;;6.40;22.50;;;;;;5013832;28;20211;-75
2021/03/29 01:39:49;;;;;;;5.90;5.28;;;6.40;23.00;;;;;;5030908;28;20196;-76
2021/03/29 01:42:16;;;;;;;4.80;4.15;;;6.30;23.20;;;;;;5013749;28;20511;-78
2021/03/29 01:44:42;;;;;;;4.88;4.40;;;6.20;23.50;;;;;;5013651;28;20203;-77
2021/03/29 01:47:09;;;;;;;4.00;3.72;;;6.20;23.80;;;;;;5013855;28;20330;-76
2021/03/29 01:49:39;;;;;;;6.75;5.72;;;6.10;23.80;;;;;;5013054;28;20179;-76
2021/03/29 01:52:05;;;;;;;5.88;5.28;;;6.00;23.90;;;;;;5031699;28;20262;-76
2021/03/29 01:54:33;;;;;;;4.80;3.78;;;5.90;24.20;;;;;;5013135;28;20281;-76
2021/03/29 01:57:07;;;;;;;6.28;4.10;;;5.80;24.40;;;;;;5013556;28;20182;-76
2021/03/29 01:59:32;;;;;;;8.98;4.75;;;5.80;24.10;;;;;;5012851;28;20636;-76
2021/03/29 02:01:58;;;;;;;5.03;4.50;;;5.80;23.90;;;;;;5013479;28;20208;-76
2021/03/29 02:04:27;;;;;;;4.93;4.43;;;5.80;24.30;;;;;;5031062;28;20560;-77
2021/03/29 02:06:58;;;;;;;4.88;4.47;;;5.80;24.50;;;;;;5031021;28;20199;-77
2021/03/29 02:09:25;;;;;;;4.90;4.50;;;5.80;24.20;;;;;;5030570;28;20258;-76
2021/03/29 02:11:51;;;;;;;4.10;3.80;;;5.70;24.50;;;;;;5013208;28;20179;-77
2021/03/29 02:14:19;;;;;;;4.88;4.38;;;5.70;24.70;;;;;;5013313;28;20218;-76
2021/03/29 02:16:46;;;;;;;8.40;3.60;;;5.60;24.20;;;;;;5013085;28;20171;-77
2021/03/29 02:19:18;;;;;;;5.38;4.97;;;5.60;24.30;;;;;;5012627;28;20695;-77
2021/03/29 02:21:45;;;;;;;4.47;4.18;;;5.60;24.40;;;;;;5014245;28;20279;-77
2021/03/29 02:24:12;;;;;;;4.00;3.60;;;5.50;24.60;;;;;;5014347;28;20281;-76
2021/03/29 02:26:40;;;;;;;3.67;3.38;;;5.50;24.60;;;;;;5030757;28;20199;-77
2021/03/29 02:29:06;;;;;;;9.38;4.07;;;5.40;24.50;;;;;;5012727;28;20187;-76
2021/03/29 02:31:33;;;;;;;4.55;3.85;;;5.50;24.60;;;;;;5031171;28;20637;-77
2021/03/29 02:34:00;;;;;;;6.05;3.63;;;5.50;24.60;;;;;;5014035;28;20195;-76
2021/03/29 02:36:27;;;;;;;6.10;4.25;;;5.40;24.60;;;;;;5032186;28;20186;-77
2021/03/29 02:38:53;;;;;;;8.38;4.32;;;5.40;24.60;;;;;;5034331;28;20531;-77
2021/03/29 02:41:27;;;;;;;4.20;3.80;;;5.30;24.50;;;;;;5015524;28;20179;-77
2021/03/29 02:43:55;;;;;;;4.30;3.75;;;5.20;24.80;;;;;;5032000;28;20194;-77
2021/03/29 02:46:27;;;;;;;3.45;3.15;;;5.10;25.00;;;;;;5016242;28;20183;-77
2021/03/29 02:48:54;;;;;;;3.50;3.20;;;5.20;24.90;;;;;;5035097;28;20183;-77
2021/03/29 02:51:24;;;;;;;3.95;3.55;;;5.20;24.90;;;;;;5036567;28;20258;-77
2021/03/29 02:53:55;;;;;;;4.70;4.30;;;5.20;24.90;;;;;;5020850;28;20297;-77
2021/03/29 02:56:23;;;;;;;4.57;3.85;;;5.20;24.80;;;;;;5019603;28;20410;-77
2021/03/29 02:58:59;;;;;;;5.13;3.45;;;5.20;24.90;;;;;;5018645;28;20237;-76
2021/03/29 03:01:29;;;;;;;3.58;3.15;;;5.20;25.00;;;;;;5034622;28;20636;-76
2021/03/29 03:03:56;;;;;;;3.63;3.33;;;5.10;25.20;;;;;;5035027;28;20195;-76
2021/03/29 03:06:23;;;;;;;3.95;3.63;;;5.00;25.50;;;;;;5035033;28;20175;-76
2021/03/29 03:08:50;;;;;;;3.88;3.35;;;4.90;25.60;;;;;;5016343;28;20190;-76
2021/03/29 03:11:16;;;;;;;3.80;3.40;;;4.90;25.60;;;;;;5034691;28;20517;-76
2021/03/29 03:13:46;;;;;;;3.55;3.25;;;4.90;25.90;;;;;;5016630;28;20234;-76
2021/03/29 03:16:11;;;;;;;3.60;2.88;;;4.90;26.10;;;;;;5034217;28;20199;-75
2021/03/29 03:18:38;;;;;;;3.83;3.13;;;4.80;26.40;;;;;;5034252;28;20226;-76
2021/03/29 03:21:05;;;;;;;3.88;3.00;;;4.70;26.40;;;;;;5033632;28;20586;-76
2021/03/29 03:23:31;;;;;;;2.95;2.72;;;4.70;26.90;;;;;;5034149;28;20203;-76
2021/03/29 03:25:56;;;;;;;3.70;3.40;;;4.60;26.20;;;;;;5034051;28;20240;-76
2021/03/29 03:28:25;;;;;;;3.40;3.00;;;4.60;26.00;;;;;;5016616;28;20190;-77
2021/03/29 03:30:53;;;;;;;2.90;2.70;;;4.60;26.20;;;;;;5016944;28;20211;-77
2021/03/29 03:33:21;;;;;;;3.50;3.20;;;4.60;26.10;;;;;;5033906;28;20210;-74
2021/03/29 03:35:50;;;;;;;3.67;3.17;;;4.60;25.90;;;;;;5033863;28;20206;-74
2021/03/29 03:38:28;;;;;;;3.95;3.38;;;4.60;25.80;;;;;;5015889;28;20198;-75
2021/03/29 03:40:58;;;;;;;7.07;3.08;;;4.60;25.90;;;;;;5015346;28;20175;-74
2021/03/29 03:43:27;;;;;;;2.72;2.53;;;4.60;25.90;;;;;;5033586;28;20608;-75
2021/03/29 03:46:09;;;;;;;4.15;3.75;;;4.50;26.00;;;;;;5015935;28;20249;-74
2021/03/29 03:48:37;;;;;;;4.03;3.63;;;4.50;25.90;;;;;;5015845;28;20628;-75
2021/03/29 03:51:03;;;;;;;4.82;3.92;;;4.60;26.00;;;;;;5033382;28;20568;-76
2021/03/29 03:53:30;;;;;;;2.58;2.38;;;4.50;26.00;;;;;;5034153;28;20229;-76
2021/03/29 03:56:00;;;;;;;3.80;2.88;;;4.50;26.10;;;;;;5034227;28;20199;-76
2021/03/29 03:58:27;;;;;;;4.07;3.17;;;4.40;26.20;;;;;;5035341;28;20375;-76
2021/03/29 04:00:53;;;;;;;6.18;3.85;;;4.30;26.10;;;;;;5033661;28;20637;-76
2021/03/29 04:03:19;;;;;;;4.40;3.67;;;4.30;26.40;;;;;;5015545;28;20210;-75
2021/03/29 04:05:48;;;;;;;4.23;3.07;;;4.30;26.40;;;;;;5015746;28;20182;-73
2021/03/29 04:08:18;;;;;;;5.13;3.80;;;4.30;26.40;;;;;;5015623;28;20180;-74
2021/03/29 04:13:18;;;;;;;5.95;3.75;;;4.30;26.50;;;;;;5033504;28;20206;-73
2021/03/29 04:15:43;;;;;;;3.92;3.03;;;4.30;26.50;;;;;;5033013;28;20191;-74
2021/03/29 04:18:09;;;;;;;5.30;4.10;;;4.20;26.70;;;;;;5032960;28;20675;-73
2021/03/29 04:20:35;;;;;;;6.20;3.53;;;4.20;26.50;;;;;;5032572;28;20278;-74
2021/03/29 04:23:01;;;;;;;4.90;3.30;;;4.10;26.50;;;;;;5015490;28;20199;-74
2021/03/29 04:25:27;;;;;;;2.83;2.60;;;4.10;27.50;;;;;;5015154;28;20499;-74
2021/03/29 04:27:52;;;;;;;4.77;2.93;;;4.10;26.90;;;;;;5014939;28;20433;-75
2021/03/29 04:30:19;;;;;;;4.43;3.63;;;4.10;26.90;;;;;;5032865;28;20189;-75
2021/03/29 04:32:48;;;;;;;3.85;3.55;;;4.10;26.90;;;;;;5032837;28;20551;-75
2021/03/29 04:35:16;;;;;;;3.25;2.95;;;4.10;26.90;;;;;;5015154;28;20581;-76
2021/03/29 04:37:42;;;;;;;4.15;3.80;;;4.10;26.70;;;;;;5015329;28;20207;-75
2021/03/29 04:40:09;;;;;;;3.72;3.25;;;4.10;26.90;;;;;;5014721;28;20175;-76
2021/03/29 04:42:35;;;;;;;3.50;3.22;;;4.00;27.00;;;;;;5033004;28;20171;-75
2021/03/29 04:45:00;;;;;;;4.10;3.70;;;4.00;27.20;;;;;;5033308;28;20714;-75
2021/03/29 04:47:26;;;;;;;4.47;3.73;;;4.00;27.30;;;;;;5032603;28;20500;-75
2021/03/29 04:49:51;;;;;;;4.23;3.07;;;4.00;27.10;;;;;;5032110;28;20224;-75
2021/03/29 04:52:17;;;;;;;3.93;3.50;;;4.00;27.70;;;;;;5032660;28;20649;-75
2021/03/29 04:54:43;;;;;;;6.73;3.70;;;4.00;27.70;;;;;;5014320;28;20324;-75
2021/03/29 04:57:08;;;;;;;6.00;4.60;;;4.00;27.40;;;;;;5032542;28;20257;-75
2021/03/29 04:59:34;;;;;;;6.43;3.37;;;4.00;27.30;;;;;;5014017;28;20243;-75
2021/03/29 05:01:59;;;;;;;4.00;3.13;;;4.00;27.30;;;;;;5014436;28;20190;-75
2021/03/29 05:04:25;;;;;;;3.67;3.33;;;4.00;27.20;;;;;;5014257;28;20444;-75
2021/03/29 05:06:51;;;;;;;9.10;3.33;;;4.00;27.40;;;;;;5032261;28;20178;-74
2021/03/29 05:09:16;;;;;;;6.30;3.70;;;3.90;27.70;;;;;;5031671;28;20183;-75
2021/03/29 05:11:53;;;;;;;3.80;3.50;;;4.00;27.50;;;;;;5014387;28;20187;-75
2021/03/29 05:14:19;;;;;;;9.18;4.15;;;4.00;27.50;;;;;;5065601;22;20225;-72
2021/03/29 05:16:47;;;;;;;4.07;3.63;;;4.00;27.40;;;;;;5077793;28;20201;-72
2021/03/29 05:19:13;;;;;;;4.68;3.92;;;4.00;27.70;;;;;;5076121;28;20174;-72
2021/03/29 05:21:39;;;;;;;4.43;3.47;;;4.10;27.30;;;;;;5077782;28;20691;-73
2021/03/29 05:24:06;;;;;;;3.90;3.60;;;4.20;27.20;;;;;;5077174;28;20194;-73
2021/03/29 05:26:32;;;;;;;5.72;4.15;;;4.30;26.70;;;;;;5077105;28;20431;-72
2021/03/29 05:28:57;;;;;;;5.43;4.20;;;4.30;26.60;;;;;;5076128;28;20255;-72
2021/03/29 05:31:23;;;;;;;7.23;4.80;;;4.30;26.50;;;;;;5077466;28;20408;-73
2021/03/29 05:33:49;;;;;;;4.80;4.40;;;4.40;26.30;;;;;;5076956;28;20194;-73
2021/03/29 05:36:15;;;;;;;6.70;3.70;;;4.50;26.30;;;;;;5076612;28;20276;-72
2021/03/29 05:38:42;;;;;;;7.88;4.60;;;;;;;;;;5078234;28;20171;-72
2021/03/29 05:41:12;;;;;;;5.20;4.78;;;4.60;25.70;;;;;;5080241;28;20224;-73
2021/03/29 05:43:40;;;;;;;5.13;4.50;;;4.80;25.80;;;;;;5079951;28;20709;-73
2021/03/29 05:46:05;;;;;;;4.90;4.50;;;4.90;25.30;;;;;;5076943;28;20179;-74
2021/03/29 05:48:31;;;;;;;4.40;4.10;;;5.10;25.00;;;;;;5077249;28;20265;-73
2021/03/29 05:51:04;;;;;;;6.35;5.72;;;5.20;24.40;;;;;;5076229;28;20181;-72
2021/03/29 05:53:31;;;;;;;7.03;5.57;;;5.40;24.50;;;;;;5073843;28;20200;-72
2021/03/29 05:55:59;;;;;;;5.85;5.35;;;;;;;;;;5082807;28;20212;-72
2021/03/29 06:00:51;;;;;;;7.67;7.07;;;;;;;;;;5085944;28;20227;-72
2021/03/29 06:03:24;;;;;;;7.77;7.37;;;9.00;18.20;;;;;;5085005;28;20413;-74
2021/03/29 06:05:58;;;;;;;8.80;7.53;;;9.00;17.10;;;;;;5083214;28;20447;-73
2021/03/29 06:08:24;;;;;;;8.43;7.60;;;8.80;18.30;;;;;;5082593;28;20463;-73
2021/03/29 06:10:54;;;;;;;9.43;8.50;;;8.70;18.40;;;;;;5080004;28;20889;-71
2021/03/29 06:13:28;;;;;;;8.37;7.97;;;8.40;18.50;;;;;;5070869;28;20428;-71
2021/03/29 06:16:20;;;;;;;10.40;9.50;;;8.60;18.70;;;;;;5069698;28;20995;-72
2021/03/29 06:18:51;;;;;;;14.77;13.37;;;9.30;17.30;;;;;;5065183;28;20429;-71
2021/03/29 06:21:17;;;;;;;13.37;12.47;;;9.70;15.70;;;;;;5070555;28;20422;-70
2021/03/29 06:23:59;;;;;;;12.80;11.80;;;9.90;15.00;;;;;;5070852;28;20445;-73
2021/03/29 06:26:24;;;;;;;11.40;10.60;;;9.80;14.70;;;;;;5068287;28;20451;-73
2021/03/29 06:28:51;;;;;;;11.77;11.03;;;9.60;17.40;;;;;;5064762;28;20424;-75
2021/03/29 06:31:28;;;;;;;12.10;10.93;;;9.50;15.90;;;;;;5070859;28;20199;-73
2021/03/29 06:33:55;;;;;;;11.80;11.20;;;9.40;16.20;;;;;;5070325;28;20467;-72
2021/03/29 06:36:40;;;;;;;13.00;12.00;;;9.40;16.20;;;;;;5070344;28;21116;-71
2021/03/29 06:39:11;;;;;;;11.63;10.83;;;9.40;15.50;;;;;;5069984;28;20411;-73
2021/03/29 06:41:37;;;;;;;13.13;12.23;;;9.60;15.20;;;;;;5064204;28;20445;-71
2021/03/29 06:44:03;;;;;;;13.00;12.20;;;;;;;;;;5068698;28;20530;-72
2021/03/29 06:46:29;;;;;;;13.13;12.20;;;11.20;12.00;;;;;;5070202;28;20427;-72
2021/03/29 06:48:58;;;;;;;13.10;12.30;;;11.20;11.90;;;;;;5069514;28;20503;-72
2021/03/29 06:51:32;;;;;;;13.77;12.70;;;11.20;12.50;;;;;;5070453;28;20510;-72
2021/03/29 06:54:04;;;;;;;14.40;13.50;;;11.30;13.10;;;;;;5068500;28;20694;-72
2021/03/29 06:56:34;;;;;;;14.97;14.10;;;11.40;11.90;;;;;;5051065;28;20462;-72
2021/03/29 06:59:03;;;;;;;15.90;13.47;;;11.50;11.30;;;;;;5054473;28;20425;-71
2021/03/29 07:01:30;;;;;;;16.50;15.30;;;11.60;11.70;;;;;;5050115;28;20418;-72
2021/03/29 07:03:56;;;;;;;13.83;13.23;;;11.70;11.60;;;;;;5050288;28;20653;-72
2021/03/29 07:06:24;;;;;;;12.97;12.03;;;11.70;11.40;;;;;;5049128;28;20447;-73
2021/03/29 07:08:50;;;;;;;13.33;12.00;;;11.50;10.80;;;;;;5049945;28;20420;-73
2021/03/29 07:11:19;;;;;;;13.93;13.23;;;11.40;11.90;;;;;;5058472;28;20423;-76
2021/03/29 07:13:45;;;;;;;13.33;12.63;;;11.30;10.70;;;;;;5071743;28;20457;-74
2021/03/29 07:16:12;;;;;;;14.20;13.50;;;11.20;11.90;;;;;;5070806;28;20460;-73
2021/03/29 07:18:39;;;;;;;14.60;13.90;;;11.00;11.20;;;;;;5070562;28;20505;-74
2021/03/29 07:21:07;;;;;;;14.63;13.93;;;11.00;12.60;;;;;;5070058;28;20840;-74
2021/03/29 07:23:33;;;;;;;13.53;12.77;;;11.00;12.70;;;;;;5070522;28;20445;-73
2021/03/29 07:26:00;;;;;;;14.07;13.30;;;11.00;13.40;;;;;;5066407;28;20481;-72
2021/03/29 07:28:30;;;;;;;14.73;13.83;;;10.90;14.20;;;;;;5070093;28;20457;-73
2021/03/29 07:31:00;;;;;;;14.43;13.73;;;11.00;14.10;;;;;;5069422;28;20434;-74
2021/03/29 07:33:46;;;;;;;15.73;14.83;;;11.10;12.40;;;;;;5072141;28;20430;-71
2021/03/29 07:36:12;;;;;;;14.83;13.47;;;11.30;12.70;;;;;;5074075;28;20839;-74
2021/03/29 07:39:08;;;;;;;15.23;14.03;;;11.40;12.50;;;;;;5073568;28;20413;-74
2021/03/29 07:41:33;;;;;;;13.83;13.10;;;11.40;11.80;;;;;;5057894;28;20513;-74
2021/03/29 07:44:13;;;;;;;14.20;13.30;;;11.50;12.00;;;;;;5072696;28;20555;-72
2021/03/29 07:46:41;;;;;;;14.90;14.00;;;11.60;11.70;;;;;;5073604;28;20587;-74
2021/03/29 07:49:45;;;;;;;15.47;14.20;;;11.70;11.50;;;;;;5070002;28;20649;-74
2021/03/29 07:52:32;;;;;;;15.17;14.23;;;11.70;11.40;;;;;;5056759;28;20450;-73
2021/03/29 07:54:59;;;;;;;14.50;13.80;;;11.70;12.00;;;;;;5053551;28;20530;-74
2021/03/29 07:57:43;;;;;;;14.47;13.40;;;11.60;11.30;;;;;;5050298;28;20425;-73
2021/03/29 08:00:24;;;;;;;14.37;13.67;;;11.90;11.90;;;;;;5063812;28;20530;-73
2021/03/29 08:02:50;;;;;;;15.70;14.80;;;12.30;11.30;;;;;;5056123;28;20431;-75
2021/03/29 08:05:35;;;;;;;15.40;14.50;;;12.50;11.00;;;;;;5053669;28;20438;-74
2021/03/29 08:08:02;;;;;;;17.73;15.67;;;12.80;11.60;;;;;;5054885;28;20423;-74
2021/03/29 08:10:58;;;;;;;15.00;14.20;;;12.90;10.60;;;;;;5070534;28;20795;-73
2021/03/29 08:13:37;;;;;;;16.93;16.07;;;13.10;10.20;;;;;;5075391;28;20424;-73
2021/03/29 08:16:10;;;;;;;16.13;15.27;;;13.30;9.60;;;;;;5075820;28;20459;-76
2021/03/29 08:19:14;;;;;;;15.57;14.40;;;13.40;9.50;;;;;;5074998;28;20412;-72
2021/03/29 08:21:52;;;;;;;16.63;15.70;;;13.30;9.50;;;;;;5071717;28;20450;-73
2021/03/29 08:24:43;;;;;;;16.30;15.50;;;13.40;9.80;;;;;;5073238;28;20513;-74
2021/03/29 08:27:14;;;;;;;18.40;17.20;;;13.80;10.40;;;;;;5073226;28;20410;-73
2021/03/29 08:29:44;;;;;;;16.93;16.00;;;14.30;8.20;;;;;;5071101;28;20486;-73
2021/03/29 08:32:19;;;;;;;15.57;14.93;;;14.60;8.40;;;;;;5056634;28;20489;-74
2021/03/29 08:34:55;;;;;;;17.33;16.43;;;14.70;8.30;;;;;;5052749;28;20561;-73
2021/03/29 08:37:31;;;;;;;17.47;16.57;;;14.70;8.50;;;;;;5056052;28;20417;-74
2021/03/29 08:39:59;;;;;;;16.60;15.80;;;14.40;8.70;;;;;;5072072;28;20426;-73
2021/03/29 08:42:29;;;;;;;17.57;16.37;;;14.30;8.60;;;;;;5070812;28;20512;-74
2021/03/29 08:44:55;;;;;;;17.63;16.70;;;14.20;9.30;;;;;;5072267;28;20435;-73
2021/03/29 08:47:23;;;;;;;19.40;17.97;;;14.10;9.70;;;;;;5070966;28;20493;-73
2021/03/29 08:49:52;;;;;;;17.37;16.37;;;14.10;9.30;;;;;;5073048;28;20503;-73
2021/03/29 08:52:18;;;;;;;18.17;16.70;;;14.00;9.80;;;;;;5056002;28;20435;-73
2021/03/29 08:54:50;;;;;;;15.67;14.87;;;14.00;9.60;;;;;;5056184;28;20912;-73
2021/03/29 08:57:16;;;;;;;16.40;14.93;;;14.10;9.60;;;;;;5069031;28;20179;-72
2021/03/29 08:59:42;;;;;;;17.33;15.80;;;14.20;9.40;;;;;;5074707;28;20481;-72
2021/03/29 09:02:15;;;;;;;16.10;15.27;;;14.20;9.20;;;;;;5075005;28;20416;-73
2021/03/29 09:04:55;;;;;;;16.20;15.10;;;14.30;8.20;;;;;;5076219;28;20229;-72
2021/03/29 09:07:31;;;;;;;16.57;15.57;;;14.40;9.00;;;;;;5076304;28;20433;-72
2021/03/29 09:09:58;;;;;;;14.63;14.00;;;14.40;8.20;;;;;;5074607;28;20421;-72
2021/03/29 09:12:29;;;;;;;15.70;14.80;;;14.40;8.20;;;;;;5075242;28;20448;-74
2021/03/29 09:14:55;;;;;;;15.67;14.70;;;14.50;7.80;;;;;;5076097;28;20866;-75
2021/03/29 09:17:23;;;;;;;16.53;15.73;;;14.50;8.30;;;;;;5071577;28;20436;-72
2021/03/29 09:19:49;;;;;;;16.70;15.73;;;14.70;7.80;;;;;;5074476;28;20455;-72
2021/03/29 09:22:26;;;;;;;17.30;16.10;;;14.80;8.50;;;;;;5075664;28;20420;-75
2021/03/29 09:24:51;;;;;;;16.97;16.20;;;15.00;8.60;;;;;;5076614;28;20875;-73
2021/03/29 09:27:17;;;;;;;16.03;15.27;;;15.20;7.80;;;;;;5075127;28;20410;-73
2021/03/29 09:29:42;;;;;;;16.50;15.70;;;15.30;8.10;;;;;;5075049;28;20268;-75
2021/03/29 09:32:13;;;;;;;16.93;16.13;;;15.50;8.60;;;;;;5074927;28;20663;-73
2021/03/29 09:34:43;;;;;;;15.40;14.80;;;15.60;7.30;;;;;;5073508;28;20211;-74
2021/03/29 09:37:23;;;;;;;17.30;16.50;;;15.70;8.50;;;;;;5076424;28;20459;-73
2021/03/29 09:40:05;;;;;;;16.00;15.20;;;15.80;7.50;;;;;;5075965;28;20929;-73
2021/03/29 09:42:43;;;;;;;16.63;15.90;;;15.80;6.90;;;;;;5076394;28;20897;-73
2021/03/29 09:45:11;;;;;;;16.57;15.57;;;15.90;6.80;;;;;;5077996;28;20429;-73
2021/03/29 09:47:37;;;;;;;16.60;15.50;;;15.90;5.40;;;;;;5077599;28;20971;-73
2021/03/29 09:50:06;;;;;;;15.43;14.83;;;15.90;5.60;;;;;;5076154;28;20447;-74
2021/03/29 09:52:42;;;;;;;16.83;15.70;;;16.00;5.90;;;;;;5076732;28;20444;-76
2021/03/29 09:55:12;;;;;;;14.73;14.13;;;16.20;4.90;;;;;;5076581;28;21022;-73
2021/03/29 09:57:43;;;;;;;16.50;15.60;;;16.40;5.10;;;;;;5077744;28;20422;-74
2021/03/29 10:00:11;;;;;;;16.80;15.90;;;16.60;5.20;;;;;;5078355;28;20419;-74
2021/03/29 10:02:36;;;;;;;15.83;15.07;;;16.70;3.40;;;;;;5077514;28;20808;-75
2021/03/29 10:05:10;;;;;;;17.03;16.03;;;16.90;3.80;;;;;;5078186;28;20475;-74
2021/03/29 10:07:54;;;;;;;16.10;15.40;;;16.90;4.20;;;;;;5077457;28;20170;-74
2021/03/29 10:10:30;;;;;;;16.20;15.60;;;16.80;2.10;;;;;;5077173;28;20487;-73
2021/03/29 10:13:08;;;;;;;17.17;16.40;;;16.70;2.40;;;;;;5075019;28;20506;-72
2021/03/29 10:15:35;;;;;;;16.40;15.60;;;16.80;3.20;;;;;;5075655;28;20479;-73
2021/03/29 10:18:08;;;;;;;15.77;15.07;;;16.90;2.40;;;;;;5075553;28;20427;-76
2021/03/29 10:20:35;;;;;;;16.10;15.50;;;17.00;3.00;;;;;;5076480;28;20429;-74
2021/03/29 10:23:27;;;;;;;15.70;15.10;;;17.10;2.70;;;;;;5078315;28;20423;-75
2021/03/29 10:26:18;;;;;;;17.37;16.27;;;17.20;2.10;;;;;;5069783;28;20490;-75
2021/03/29 10:28:57;;;;;;;16.00;15.40;;;17.20;1.40;;;;;;5076168;28;20493;-74
2021/03/29 10:31:24;;;;;;;16.57;15.87;;;17.20;1.90;;;;;;5060667;28;20420;-75
2021/03/29 10:33:50;;;;;;;17.17;16.10;;;17.10;1.30;;;;;;5061455;28;20440;-74
2021/03/29 10:36:16;;;;;;;16.33;15.43;;;17.20;2.10;;;;;;5060641;28;20540;-75
2021/03/29 10:38:44;;;;;;;16.87;16.00;;;17.30;1.10;;;;;;5062412;28;20934;-75
2021/03/29 10:41:09;;;;;;;16.50;15.77;;;17.50;1.20;;;;;;5079449;28;20470;-74
2021/03/29 10:43:35;;;;;;;17.20;16.40;;;17.50;1.20;;;;;;5079721;28;20420;-74
2021/03/29 10:46:00;;;;;;;16.10;15.37;;;17.50;2.10;;;;;;5079136;28;20181;-74
2021/03/29 10:48:26;;;;;;;16.90;16.10;;;17.60;1.30;;;;;;5081039;28;20260;-74
2021/03/29 10:50:52;;;;;;;16.87;16.13;;;17.70;1.90;;;;;;5062678;28;20206;-74
2021/03/29 10:53:17;;;;;;;17.27;16.57;;;17.80;1.10;;;;;;5061196;28;20188;-73
2021/03/29 10:55:43;;;;;;;16.90;16.20;;;17.80;1.30;;;;;;5060800;28;20222;-73
2021/03/29 10:58:08;;;;;;;17.10;16.40;;;17.80;1.00;;;;;;5059706;28;20265;-73
2021/03/29 11:00:34;;;;;;;16.37;15.67;;;17.80;2.00;;;;;;5063284;28;20181;-75
2021/03/29 11:02:59;;;;;;;16.77;16.17;;;17.80;1.00;;;;;;5076641;28;20185;-72
2021/03/29 11:05:25;;;;;;;17.20;16.50;;;17.90;1.00;;;;;;5074295;28;20297;-74
2021/03/29 11:07:51;;;;;;;17.03;16.33;;;17.80;1.00;;;;;;5077439;28;20186;-73
2021/03/29 11:10:16;;;;;;;16.57;15.87;;;17.80;1.00;;;;;;5077173;28;20177;-73
2021/03/29 11:12:42;;;;;;;17.30;16.60;;;17.90;1.00;;;;;;5078535;28;20188;-74
2021/03/29 11:15:08;;;;;;;16.67;16.07;;;17.90;1.00;;;;;;5080744;28;20300;-72
2021/03/29 11:17:36;;;;;;;17.53;16.77;;;17.90;1.00;;;;;;5079468;28;20178;-74
2021/03/29 11:20:03;;;;;;;17.80;17.10;;;17.90;1.00;;;;;;5072265;28;20429;-73
2021/03/29 11:22:28;;;;;;;16.97;16.20;;;18.00;1.00;;;;;;5059372;28;20504;-74
2021/03/29 11:24:54;;;;;;;17.67;16.93;;;18.10;1.00;;;;;;5059549;28;20483;-75
2021/03/29 11:27:19;;;;;;;17.23;16.53;;;18.10;1.00;;;;;;5059037;28;20313;-72
2021/03/29 11:29:45;;;;;;;18.20;17.07;;;18.20;1.00;;;;;;5057826;28;20257;-74
2021/03/29 11:32:10;;;;;;;17.13;16.50;;;18.30;1.00;;;;;;5059082;28;20197;-73
2021/03/29 11:34:36;;;;;;;18.00;17.23;;;18.30;1.00;;;;;;5060067;28;20214;-74
2021/03/29 11:37:02;;;;;;;17.83;17.13;;;18.30;1.00;;;;;;5059719;28;20185;-71
2021/03/29 11:39:27;;;;;;;18.93;17.60;;;18.40;1.00;;;;;;5058722;28;20221;-74
2021/03/29 11:41:53;;;;;;;18.13;17.40;;;18.50;1.00;;;;;;5069487;28;20251;-74
2021/03/29 11:44:18;;;;;;;17.67;16.97;;;18.70;1.00;;;;;;5080003;28;20200;-73
2021/03/29 11:46:44;;;;;;;17.90;16.90;;;18.60;1.00;;;;;;5078720;28;20188;-72
2021/03/29 11:49:10;;;;;;;16.77;16.17;;;18.60;1.00;;;;;;5077535;28;20210;-73
2021/03/29 11:51:35;;;;;;;17.80;17.10;;;18.60;1.00;;;;;;5078132;28;20162;-73
2021/03/29 11:54:01;;;;;;;18.47;17.60;;;18.60;1.00;;;;;;5076182;28;20775;-72
2021/03/29 11:56:27;;;;;;;18.30;17.50;;;18.70;1.00;;;;;;5058216;28;20296;-74
2021/03/29 11:58:52;;;;;;;18.70;17.70;;;18.80;1.00;;;;;;5057261;28;20363;-73
2021/03/29 12:02:06;;;;;;;18.00;17.30;;;19.00;1.00;;;;;;5056568;28;20171;-74
2021/03/29 12:07:19;;;;;;;17.87;17.13;;;18.90;1.00;;;;;;5064723;28;20827;-72
2021/03/29 12:09:54;;;;;;;17.83;17.13;;;19.00;1.00;;;;;;5065194;28;20518;-74
2021/03/29 12:12:20;;;;;;;17.33;16.73;;;19.10;1.00;;;;;;5071154;28;20462;-75
2021/03/29 12:14:47;;;;;;;18.03;17.13;;;19.20;1.00;;;;;;5079777;28;20471;-73
2021/03/29 12:17:14;;;;;;;18.03;17.23;;;19.20;1.00;;;;;;5081162;28;20480;-72
2021/03/29 12:19:41;;;;;;;17.70;16.93;;;19.20;1.00;;;;;;5078743;28;20427;-73
2021/03/29 12:22:20;;;;;;;17.87;17.00;;;19.40;1.00;;;;;;5080305;28;20423;-73
2021/03/29 12:24:49;;;;;;;17.40;16.70;;;19.40;1.00;;;;;;5068534;28;20448;-72
2021/03/29 12:27:15;;;;;;;18.43;17.63;;;19.50;1.00;;;;;;5059794;28;20425;-73
2021/03/29 12:29:43;;;;;;;18.20;17.30;;;19.50;1.00;;;;;;5060490;28;20531;-73
2021/03/29 12:32:13;;;;;;;17.87;17.17;;;19.60;1.00;;;;;;5079790;28;20412;-72
2021/03/29 12:34:46;;;;;;;17.93;17.23;;;19.60;1.00;;;;;;5078573;28;20471;-73
2021/03/29 12:37:13;;;;;;;17.77;17.07;;;19.60;1.00;;;;;;5078972;28;20405;-73
2021/03/29 12:39:45;;;;;;;18.00;17.20;;;19.60;1.00;;;;;;5078479;28;20905;-75
2021/03/29 12:42:14;;;;;;;18.37;17.27;;;19.70;1.00;;;;;;5078830;28;20420;-73
2021/03/29 12:44:40;;;;;;;18.90;17.90;;;19.60;1.00;;;;;;5079675;28;20443;-73
2021/03/29 12:47:09;;;;;;;18.30;17.50;;;19.70;1.00;;;;;;5079471;28;20478;-73
2021/03/29 12:49:35;;;;;;;18.97;18.13;;;19.60;1.00;;;;;;5077562;28;20796;-73
2021/03/29 12:52:02;;;;;;;18.20;17.43;;;19.60;1.00;;;;;;5078729;28;20412;-72
2021/03/29 12:54:34;;;;;;;18.10;17.40;;;19.60;1.00;;;;;;5065084;28;20194;-74
2021/03/29 12:57:00;;;;;;;17.63;17.03;;;;;;;;;;5057932;28;20820;-72
2021/03/29 12:59:30;;;;;;;18.30;17.60;;;;;;;;;;5057472;28;20409;-73
2021/03/29 13:01:57;;;;;;;18.37;17.57;;;;;;;;;;5057541;28;20409;-72
2021/03/29 13:04:33;;;;;;;18.97;18.17;;;;;;;;;;5057001;28;21084;-72
2021/03/29 13:07:46;;;;;;;18.57;17.77;;;;;;;;;;5063414;28;20458;-72
2021/03/29 13:10:08;;;;;;;19.40;18.37;;;;;;;;;;5054700;28;20491;-72